createdAt,value
2022-12-22T00:00:03.769Z,1003.12
2022-12-22T00:15:01.910Z,1003.11
2022-12-22T00:30:01.840Z,1002.90
2022-12-22T00:45:01.519Z,1002.79
2022-12-22T01:00:03.604Z,1002.65
2022-12-22T01:15:01.563Z,1002.49
2022-12-22T01:30:01.580Z,1002.49
2022-12-22T01:40:01.599Z,1002.37
2022-12-22T01:45:01.500Z,1002.37
2022-12-22T02:00:03.517Z,1002.30
2022-12-22T02:15:01.631Z,1002.16
2022-12-22T02:25:01.605Z,1002.10
2022-12-22T02:30:01.452Z,1002.10
2022-12-22T02:45:01.545Z,1002.17
2022-12-22T02:50:01.500Z,1002.17
2022-12-22T03:00:03.324Z,1002.17
2022-12-22T03:15:03.055Z,1001.98
2022-12-22T03:25:01.862Z,1001.86
2022-12-22T03:30:02.534Z,1001.69
2022-12-22T03:45:01.571Z,1001.61
2022-12-22T04:00:03.815Z,1001.44
2022-12-22T04:15:01.689Z,1001.27
2022-12-22T04:30:01.808Z,1001.12
2022-12-22T04:45:07.157Z,1001.06
2022-12-22T05:00:03.426Z,1000.90
2022-12-22T05:10:01.653Z,1000.73
2022-12-22T05:15:01.690Z,1000.73
2022-12-22T05:30:02.022Z,1000.57
2022-12-22T05:45:01.944Z,1000.50
2022-12-22T06:00:03.941Z,1000.46
2022-12-22T06:15:01.758Z,1000.46
2022-12-22T06:30:01.721Z,1000.46
2022-12-22T06:45:01.848Z,1000.43
2022-12-22T07:01:07.239Z,1000.44
2022-12-22T07:16:07.995Z,1000.47
2022-12-22T07:32:01.728Z,1000.47
2022-12-22T07:47:01.687Z,1000.45
2022-12-22T07:57:01.566Z,1000.50
2022-12-22T08:12:01.558Z,1000.60
2022-12-22T08:17:01.568Z,1000.66
2022-12-22T08:32:01.499Z,1000.72
2022-12-22T08:37:01.329Z,1000.68
2022-12-22T08:42:01.311Z,1000.68
2022-12-22T08:57:06.436Z,1000.63
2022-12-22T09:12:01.593Z,1000.76
2022-12-22T09:28:01.477Z,1000.73
2022-12-22T09:43:06.405Z,1000.79
2022-12-22T09:58:01.561Z,1000.62
2022-12-22T10:08:01.426Z,1000.56
2022-12-22T10:23:01.315Z,1000.72
2022-12-22T10:39:01.408Z,1000.51
2022-12-22T10:54:06.394Z,1000.51
2022-12-22T11:04:06.451Z,1000.49
2022-12-22T11:19:01.343Z,1000.41
2022-12-22T11:34:01.300Z,1000.33
2022-12-22T11:39:01.330Z,1000.32
2022-12-22T11:54:11.015Z,1000.21
2022-12-22T12:09:01.305Z,1000.15
2022-12-22T12:24:01.851Z,1000.11
2022-12-22T12:39:10.216Z,1000.21
2022-12-22T12:44:06.581Z,1000.21
2022-12-22T12:59:01.727Z,1000.11
2022-12-22T13:30:01.537Z,1000.18
2022-12-22T14:00:03.514Z,1000.56
2022-12-22T14:10:00.979Z,1000.63
2022-12-22T14:15:01.015Z,1000.63
2022-12-22T14:20:00.782Z,1000.58
2022-12-22T14:30:07.840Z,1000.79
2022-12-22T14:45:00.935Z,1000.81
2022-12-22T15:00:03.021Z,1000.84
2022-12-22T15:15:01.079Z,1000.71
2022-12-22T15:30:01.290Z,1000.70
2022-12-22T15:35:00.921Z,1000.70
2022-12-22T15:45:02.272Z,1000.86
2022-12-22T16:00:07.667Z,1000.86
2022-12-22T16:10:02.148Z,1000.98
2022-12-22T16:15:00.913Z,1000.98
2022-12-22T16:25:01.049Z,1000.89
2022-12-22T16:30:00.792Z,1001.04
2022-12-22T16:45:01.946Z,1000.96
2022-12-22T17:00:02.709Z,1001.00
2022-12-22T17:15:06.002Z,1001.00
2022-12-22T17:30:01.195Z,1000.81
2022-12-22T17:45:06.555Z,1000.97
2022-12-22T17:50:00.957Z,1000.84
2022-12-22T17:55:00.962Z,1000.84
2022-12-22T18:00:02.773Z,1000.90
2022-12-22T18:15:00.971Z,1000.95
2022-12-22T18:30:01.020Z,1000.96
2022-12-22T18:40:01.022Z,1000.97
2022-12-22T18:45:01.521Z,1000.97
2022-12-22T19:00:14.177Z,1000.97
2022-12-22T19:15:01.014Z,1000.96
2022-12-22T19:30:05.184Z,1000.92
2022-12-22T19:35:00.934Z,1000.92
2022-12-22T19:40:01.314Z,1000.87
2022-12-22T19:45:11.644Z,1000.87
2022-12-22T20:00:03.390Z,1000.90
2022-12-22T20:05:01.029Z,1000.90
2022-12-22T20:15:00.987Z,1000.88
2022-12-22T20:30:01.169Z,1000.66
2022-12-22T20:45:04.954Z,1000.79
2022-12-22T21:00:02.790Z,1000.67
2022-12-22T21:15:02.084Z,1000.74
2022-12-22T21:30:01.054Z,1000.73
2022-12-22T21:45:01.052Z,1000.75
2022-12-22T22:00:03.164Z,1000.81
2022-12-22T22:15:01.057Z,1000.84
2022-12-22T22:30:01.459Z,1000.82
2022-12-22T22:45:06.061Z,1000.81
2022-12-22T22:55:01.069Z,1000.85
2022-12-22T23:00:01.201Z,1000.88
2022-12-22T23:15:01.090Z,1000.86
2022-12-22T23:30:03.042Z,1000.84
2022-12-22T23:45:01.084Z,1000.77
2022-12-22T23:50:01.205Z,1000.70
